Marshallville, Ohio
Current Conditions -  °F | °C
As of 2:56 PM on Friday 19 Dec 2014 (Local Time) from KBJJ Reporting Station
Overcast Overcast  
Wind Chill: 25°   Ceiling: 2300
Heat Index: 30°   Visibility: 10mi
Dew Point: 24°   Wind: 5mph
Humidity: 79%   Direction: 340°NNW
Pressure: 30.22"   Gusts: NA
Location:  40.9°N, 81.73°W
Report Text: KBJJ 191956Z AUTO 34004KT 10SM OVC023 M01/M04 A3022 RMK AO2 SLP248 T10111044 TSNO
Loading
Personal Weather Stations






























Interactive Weather Map New forecast layout! Learn more

10-Day Weather Forecast

Advertisements
Track Severe Weather on mobile